Terminal Aerodrome Forecast
Issued by NWS

Home | Current Version | Previous Version | Text Only | Print | Product List | Glossary Off
Versions: 1 2 3 4 5 6 7 8 9 10 11 12 13 14 15

000
FTUS43 KMPX 251720
TAFAXN
TAF
KAXN 251720Z 2518/2618 28013KT P6SM BKN025 BKN040
     FM251900 29013G20KT P6SM SCT025 BKN040
     FM260100 28006KT P6SM FEW040
     FM261400 20007KT P6SM SKC=

USA.gov is the U.S. government's official web portal to all federal, state and local government web resources and services.